createdAt,value
2022-11-17T00:01:34.722Z,3.03
2022-11-17T00:06:57.997Z,2.85
2022-11-17T00:12:22.717Z,2.88
2022-11-17T00:17:47.107Z,2.69
2022-11-17T00:23:08.891Z,2.50
2022-11-17T00:28:30.671Z,2.59
2022-11-17T00:33:52.439Z,2.55
2022-11-17T00:39:16.125Z,2.72
2022-11-17T00:44:37.922Z,2.29
2022-11-17T00:49:59.699Z,2.20
2022-11-17T00:55:21.574Z,2.69
2022-11-17T01:00:43.408Z,2.38
2022-11-17T01:06:10.855Z,2.23
2022-11-17T01:11:33.288Z,2.09
2022-11-17T01:16:55.503Z,1.98
2022-11-17T01:22:17.382Z,2.36
2022-11-17T01:27:39.278Z,2.25
2022-11-17T01:33:01.087Z,2.23
2022-11-17T01:38:22.916Z,2.37
2022-11-17T01:43:50.788Z,2.13
2022-11-17T01:49:26.573Z,1.99
2022-11-17T01:54:48.717Z,1.96
2022-11-17T02:00:12.078Z,2.07
2022-11-17T02:05:55.019Z,2.02
2022-11-17T02:11:19.943Z,2.00
2022-11-17T02:16:41.713Z,2.14
2022-11-17T02:22:37.403Z,1.58
2022-11-17T02:28:08.337Z,1.78
2022-11-17T02:33:42.102Z,2.13
2022-11-17T02:39:14.901Z,1.78
2022-11-17T02:44:40.244Z,1.67
2022-11-17T02:50:10.615Z,1.79
2022-11-17T02:55:35.531Z,1.72
2022-11-17T03:01:06.133Z,1.70
2022-11-17T03:06:51.072Z,1.82
2022-11-17T03:12:21.707Z,1.82
2022-11-17T03:18:22.206Z,1.84
2022-11-17T03:23:51.491Z,1.61
2022-11-17T03:29:16.823Z,1.81
2022-11-17T03:34:44.479Z,1.87
2022-11-17T03:40:10.651Z,1.58
2022-11-17T03:45:38.327Z,1.57
2022-11-17T03:51:18.139Z,1.52
2022-11-17T03:56:58.830Z,1.57
2022-11-17T04:02:21.749Z,1.78
2022-11-17T04:07:46.594Z,1.55
2022-11-17T04:13:08.510Z,1.63
2022-11-17T04:18:30.274Z,1.49
2022-11-17T04:23:52.028Z,1.49
2022-11-17T04:29:13.799Z,1.58
2022-11-17T04:34:35.589Z,1.76
2022-11-17T04:39:57.370Z,1.46
2022-11-17T04:45:19.107Z,1.66
2022-11-17T04:50:40.862Z,1.61
2022-11-17T04:56:03.834Z,1.61
2022-11-17T05:01:27.174Z,1.78
2022-11-17T05:06:48.957Z,1.66
2022-11-17T05:12:10.865Z,1.66
2022-11-17T05:17:32.645Z,1.53
2022-11-17T05:22:54.398Z,1.57
2022-11-17T05:28:16.225Z,1.67
2022-11-17T05:33:38.955Z,1.55
2022-11-17T05:39:01.375Z,1.39
2022-11-17T05:44:23.213Z,1.58
2022-11-17T05:49:45.138Z,1.63
2022-11-17T05:55:07.445Z,1.50
2022-11-17T06:00:30.828Z,1.34
2022-11-17T06:05:53.442Z,1.55
2022-11-17T06:11:15.228Z,1.54
2022-11-17T06:16:43.292Z,1.78
2022-11-17T06:22:12.058Z,1.48
2022-11-17T06:27:36.848Z,1.49
2022-11-17T06:32:59.482Z,1.31
2022-11-17T06:38:21.239Z,1.42
2022-11-17T06:43:42.995Z,1.19
2022-11-17T06:49:08.420Z,1.15
2022-11-17T06:54:30.184Z,1.39
2022-11-17T06:59:51.974Z,1.28
2022-11-17T07:05:13.765Z,1.01
2022-11-17T07:10:36.484Z,1.25
2022-11-17T07:16:06.596Z,1.19
2022-11-17T07:21:28.365Z,1.37
2022-11-17T07:26:50.129Z,1.35
2022-11-17T07:32:12.815Z,1.39
2022-11-17T07:37:34.585Z,1.25
2022-11-17T07:42:56.371Z,1.19
2022-11-17T07:48:18.195Z,1.03
2022-11-17T07:53:39.998Z,1.07
2022-11-17T07:59:01.843Z,1.22
2022-11-17T08:04:23.641Z,1.18
2022-11-17T08:09:45.390Z,0.89
2022-11-17T08:15:08.055Z,1.16
2022-11-17T08:20:30.116Z,1.17
2022-11-17T08:25:51.888Z,1.19
2022-11-17T08:31:14.187Z,1.05
2022-11-17T08:36:36.008Z,0.86
2022-11-17T08:41:57.774Z,0.74
2022-11-17T08:47:19.530Z,0.94
2022-11-17T08:52:41.294Z,0.91
2022-11-17T08:58:04.051Z,1.15
2022-11-17T09:03:25.827Z,1.07
2022-11-17T09:08:47.855Z,1.20
2022-11-17T09:14:09.734Z,1.11
2022-11-17T09:19:31.479Z,1.24
2022-11-17T09:24:53.481Z,1.07
2022-11-17T09:30:15.466Z,1.27
2022-11-17T09:35:37.223Z,1.04
2022-11-17T09:40:59.618Z,0.91
2022-11-17T09:46:29.788Z,1.16
2022-11-17T09:51:52.730Z,1.06
2022-11-17T09:57:42.340Z,1.10
2022-11-17T10:03:14.741Z,0.97
2022-11-17T10:08:46.702Z,1.17
2022-11-17T10:14:08.480Z,1.10
2022-11-17T10:19:32.411Z,0.96
2022-11-17T10:24:54.335Z,0.90
2022-11-17T10:30:19.091Z,0.98
2022-11-17T10:35:40.893Z,1.06
2022-11-17T10:41:03.369Z,1.21
2022-11-17T10:46:25.303Z,1.15
2022-11-17T10:52:05.308Z,1.31
2022-11-17T10:57:27.219Z,1.35
2022-11-17T11:02:49.036Z,1.49
2022-11-17T11:08:22.051Z,1.58
2022-11-17T11:13:57.377Z,1.83
2022-11-17T11:19:20.415Z,1.55
2022-11-17T11:25:03.092Z,1.56
2022-11-17T11:30:25.203Z,1.29
2022-11-17T11:36:08.309Z,1.14
2022-11-17T11:41:55.020Z,1.40
2022-11-17T11:47:16.751Z,1.83
2022-11-17T11:52:43.504Z,1.52
2022-11-17T11:58:21.835Z,1.45
2022-11-17T12:03:56.287Z,1.10
2022-11-17T12:09:44.796Z,1.38
2022-11-17T12:15:31.589Z,1.22
2022-11-17T12:21:00.713Z,1.30
2022-11-17T12:26:28.262Z,0.94
2022-11-17T12:31:54.941Z,1.32
2022-11-17T12:37:19.569Z,1.54
2022-11-17T12:43:24.455Z,1.76
2022-11-17T12:48:58.409Z,1.75
2022-11-17T12:54:54.497Z,1.33
2022-11-17T13:00:27.290Z,1.54
2022-11-17T13:06:33.706Z,1.58
2022-11-17T13:12:03.717Z,1.19
2022-11-17T13:17:40.925Z,0.99
2022-11-17T13:23:05.762Z,1.21
2022-11-17T13:28:30.614Z,1.22
2022-11-17T13:34:10.767Z,1.00
2022-11-17T13:39:32.963Z,1.12
2022-11-17T13:44:57.257Z,1.15
2022-11-17T13:50:28.253Z,0.85
2022-11-17T13:55:50.837Z,0.99
2022-11-17T14:01:12.685Z,0.80
2022-11-17T14:07:01.668Z,0.71
2022-11-17T14:12:23.520Z,0.91
2022-11-17T14:17:54.185Z,0.84
2022-11-17T14:23:17.878Z,0.75
2022-11-17T14:28:39.697Z,0.71
2022-11-17T14:34:01.552Z,0.50
2022-11-17T14:39:23.362Z,0.24
2022-11-17T14:44:45.123Z,0.22
2022-11-17T14:50:11.447Z,0.23
2022-11-17T14:55:33.354Z,0.08
2022-11-17T15:00:55.112Z,-0.15
2022-11-17T15:06:20.128Z,-0.17
2022-11-17T15:11:42.392Z,-0.12
2022-11-17T15:17:05.093Z,-0.23
2022-11-17T15:22:27.767Z,-0.11
2022-11-17T15:27:49.580Z,-0.28
2022-11-17T15:33:11.434Z,-0.41
2022-11-17T15:38:33.401Z,-0.23
2022-11-17T15:43:55.242Z,-0.19
2022-11-17T15:49:17.336Z,0.06
2022-11-17T15:54:39.435Z,-0.01
2022-11-17T16:00:01.186Z,-0.05
2022-11-17T16:05:22.962Z,-0.04
2022-11-17T16:10:44.739Z,-0.03
2022-11-17T16:16:07.566Z,0.03
2022-11-17T16:21:29.383Z,-0.02
2022-11-17T16:26:51.177Z,-0.07
2022-11-17T16:32:13.024Z,0.13
2022-11-17T16:37:34.829Z,-0.04
2022-11-17T16:42:58.632Z,0.06
2022-11-17T16:48:20.450Z,0.30
2022-11-17T16:53:43.286Z,0.10
2022-11-17T16:59:05.143Z,0.25
2022-11-17T17:04:29.702Z,0.26
2022-11-17T17:09:51.487Z,0.34
2022-11-17T17:15:13.276Z,0.49
2022-11-17T17:20:35.044Z,0.21
2022-11-17T17:26:07.225Z,0.08
2022-11-17T17:31:31.535Z,-0.09
2022-11-17T17:36:53.288Z,-0.05
2022-11-17T17:42:15.206Z,0.05
2022-11-17T17:47:36.967Z,0.05
2022-11-17T17:52:58.727Z,-0.02
2022-11-17T17:58:20.507Z,0.05
2022-11-17T18:03:44.015Z,0.14
2022-11-17T18:09:07.519Z,-0.03
2022-11-17T18:14:29.312Z,-0.05
2022-11-17T18:19:51.094Z,-0.15
2022-11-17T18:25:17.683Z,-0.14
2022-11-17T18:30:39.759Z,-0.10
2022-11-17T18:36:09.051Z,-0.13
2022-11-17T18:41:31.147Z,-0.19
2022-11-17T18:46:54.262Z,-0.12
2022-11-17T18:52:18.789Z,-0.33
2022-11-17T18:57:44.650Z,-0.45
2022-11-17T19:03:06.934Z,-0.33
2022-11-17T19:08:29.736Z,-0.27
2022-11-17T19:13:51.703Z,-0.23
2022-11-17T19:19:14.312Z,-0.11
2022-11-17T19:24:36.485Z,-0.25
2022-11-17T19:29:58.268Z,-0.16
2022-11-17T19:35:22.855Z,0.07
2022-11-17T19:40:44.758Z,-0.04
2022-11-17T19:46:11.915Z,0.06
2022-11-17T19:51:35.227Z,-0.02
2022-11-17T19:56:57.037Z,0.03
2022-11-17T20:02:18.841Z,0.07
2022-11-17T20:07:40.741Z,0.06
2022-11-17T20:13:02.561Z,0.02
2022-11-17T20:18:24.348Z,-0.07
2022-11-17T20:23:46.731Z,0.11
2022-11-17T20:29:08.808Z,0.15
2022-11-17T20:34:30.597Z,0.05
2022-11-17T20:39:52.460Z,0.17
2022-11-17T20:45:14.219Z,0.14
2022-11-17T20:50:35.968Z,-0.08
2022-11-17T20:55:59.364Z,-0.03
2022-11-17T21:01:22.029Z,0.03
2022-11-17T21:06:44.350Z,0.06
2022-11-17T21:12:06.399Z,-0.01
2022-11-17T21:17:28.337Z,0.15
2022-11-17T21:22:50.212Z,0.06
2022-11-17T21:28:11.986Z,0.01
2022-11-17T21:33:34.841Z,-0.04
2022-11-17T21:38:57.241Z,-0.18
2022-11-17T21:44:19.088Z,0.01
2022-11-17T21:49:40.886Z,-0.10
2022-11-17T21:55:02.805Z,-0.11
2022-11-17T22:00:24.633Z,-0.14
2022-11-17T22:05:46.407Z,-0.13
2022-11-17T22:11:14.012Z,-0.27
2022-11-17T22:16:37.721Z,-0.17
2022-11-17T22:21:59.564Z,-0.18
2022-11-17T22:27:21.382Z,-0.04
2022-11-17T22:32:45.412Z,-0.20
2022-11-17T22:38:07.398Z,-0.19
2022-11-17T22:43:29.999Z,-0.17
2022-11-17T22:48:52.407Z,-0.13
2022-11-17T22:54:14.184Z,-0.13
2022-11-17T22:59:36.014Z,-0.32
2022-11-17T23:04:57.766Z,-0.35
2022-11-17T23:10:19.671Z,-0.42
2022-11-17T23:15:41.433Z,-0.47
2022-11-17T23:21:05.589Z,-0.53
2022-11-17T23:26:27.387Z,-0.56
2022-11-17T23:31:49.130Z,-0.52
2022-11-17T23:37:11.093Z,-0.73
2022-11-17T23:42:33.464Z,-0.64
2022-11-17T23:47:57.202Z,-0.67
2022-11-17T23:53:18.971Z,-0.68
2022-11-17T23:58:41.474Z,-0.74
